Time;durP1;ratioP1;P1;durP2;ratioP2;P2;SDS_P1;SDS_P2;PMS_P1;PMS_P2;Temp;Humidity;BMP_temperature;BMP_pressure;BME280_temperature;BME280_humidity;BME280_pressure;Samples;Min_cycle;Max_cycle;Signal;HPM_P1;HPM_P2
2023/01/29 00:00:22;;;;;;;25.77;13.90;;;;;;;;;;5032636;28;20499;-73
2023/01/29 00:02:48;;;;;;;19.70;12.85;;;;;;;;;;5032065;28;20018;-73
2023/01/29 00:05:14;;;;;;;19.05;12.18;;;;;;;;;;5032336;28;20586;-72
2023/01/29 00:07:39;;;;;;;17.30;11.13;;;;;;;;;;5032217;28;20036;-72
2023/01/29 00:10:06;;;;;;;20.85;12.00;;;;;;;;;;5032178;28;20037;-72
2023/01/29 00:12:31;;;;;;;17.23;10.18;;;;;;;;;;5032569;28;20026;-72
2023/01/29 00:14:57;;;;;;;16.38;9.88;;;;;;;;;;5033204;28;20091;-72
2023/01/29 00:17:22;;;;;;;16.90;9.32;;;;;;;;;;5033587;28;20368;-72
2023/01/29 00:19:48;;;;;;;16.27;8.93;;;;;;;;;;5031793;28;20072;-72
2023/01/29 00:22:14;;;;;;;16.23;8.90;;;;;;;;;;5030256;28;20099;-73
2023/01/29 00:24:39;;;;;;;16.45;9.48;;;;;;;;;;5031539;28;20029;-73
2023/01/29 00:27:05;;;;;;;14.38;8.63;;;;;;;;;;5026532;28;20668;-72
2023/01/29 00:29:31;;;;;;;15.45;8.63;;;;;;;;;;5031533;28;20037;-73
2023/01/29 00:31:56;;;;;;;17.95;8.85;;;;;;;;;;5030380;28;20104;-72
2023/01/29 00:34:22;;;;;;;16.17;8.02;;;;;;;;;;5029419;28;20041;-71
2023/01/29 00:36:49;;;;;;;13.65;8.48;;;;;;;;;;5018859;28;20514;-73
2023/01/29 00:39:14;;;;;;;12.32;8.02;;;;;;;;;;4992454;28;20031;-72
2023/01/29 00:49:53;;;;;;;13.80;7.85;;;;;;;;;;4992688;28;20027;-71
2023/01/29 00:52:24;;;;;;;12.68;7.85;;;;;;;;;;4991129;28;20034;-73
2023/01/29 00:54:58;;;;;;;12.38;7.65;;;;;;;;;;4990994;28;20035;-72
2023/01/29 00:57:26;;;;;;;12.85;7.82;;;;;;;;;;5023876;28;20041;-72
2023/01/29 00:59:52;;;;;;;10.60;6.88;;;;;;;;;;4992735;28;20022;-72
2023/01/29 01:05:06;;;;;;;13.23;7.35;;;;;;;;;;4992699;28;20049;-73
2023/01/29 01:07:32;;;;;;;13.85;7.25;;;;;;;;;;4992550;28;20084;-72
2023/01/29 01:12:44;;;;;;;13.07;7.97;;;;;;;;;;4991920;28;20500;-73
2023/01/29 01:15:10;;;;;;;11.15;7.25;;;;;;;;;;4992264;28;20093;-73
2023/01/29 01:17:36;;;;;;;14.02;7.97;;;;;;;;;;4992113;28;20030;-73
2023/01/29 01:20:03;;;;;;;14.25;7.40;;;;;;;;;;4992193;28;20034;-74
2023/01/29 01:22:30;;;;;;;13.70;8.00;;;;;;;;;;4992354;28;20112;-72
2023/01/29 01:24:56;;;;;;;12.38;7.35;;;;;;;;;;4990767;28;20037;-71
2023/01/29 01:27:22;;;;;;;13.35;7.88;;;;;;;;;;4991161;28;20109;-71
2023/01/29 01:29:48;;;;;;;10.82;7.10;;;;;;;;;;4991222;28;20556;-71
2023/01/29 01:32:14;;;;;;;14.93;8.38;;;;;;;;;;4991073;28;20136;-72
2023/01/29 01:34:40;;;;;;;12.98;8.10;;;;;;;;;;4988707;28;20515;-72
2023/01/29 01:37:06;;;;;;;14.00;8.52;;;;;;;;;;4990966;28;20034;-72
2023/01/29 01:39:32;;;;;;;13.35;8.07;;;;;;;;;;4990727;28;20126;-72
2023/01/29 01:41:57;;;;;;;18.80;8.27;;;;;;;;;;4992476;28;20416;-72
2023/01/29 01:45:11;;;;;;;14.73;8.80;;;;;;;;;;4991707;28;20038;-72
2023/01/29 01:47:42;;;;;;;13.10;8.00;;;;;;;;;;5019057;28;20046;-72
2023/01/29 01:50:25;;;;;;;14.02;8.43;;;;;;;;;;4992047;28;20101;-72
2023/01/29 01:52:54;;;;;;;;;;;;;;;;;;5023735;28;20035;-72
2023/01/29 01:55:24;;;;;;;12.95;7.78;;;;;;;;;;4992134;28;19910;-72
2023/01/29 01:57:56;;;;;;;15.00;8.38;;;;;;;;;;4991931;28;20030;-72
2023/01/29 02:00:24;;;;;;;13.88;7.53;;;;;;;;;;5022822;28;20095;-72
2023/01/29 02:11:37;;;;;;;13.35;7.93;;;;;;;;;;4995894;28;20468;-72
2023/01/29 02:14:03;;;;;;;14.88;8.02;;;;;;;;;;4995479;28;20101;-72
2023/01/29 02:16:29;;;;;;;13.63;8.05;;;;;;;;;;4995039;28;20074;-72
2023/01/29 02:18:55;;;;;;;13.63;8.23;;;;;;;;;;4994351;28;20313;-72
2023/01/29 02:21:39;;;;;;;13.55;7.90;;;;;;;;;;4995692;28;20056;-72
2023/01/29 02:24:29;;;;;;;16.73;8.93;;;;;;;;;;5026601;28;20034;-72
2023/01/29 02:27:19;;;;;;;14.02;9.20;;;;;;;;;;4993895;28;20030;-72
2023/01/29 02:29:59;;;;;;;15.65;8.98;;;;;;;;;;4979708;28;20062;-72
2023/01/29 02:32:59;;;;;;;14.38;8.90;;;;;;;;;;5026634;28;20085;-72
2023/01/29 02:35:38;;;;;;;14.10;8.13;;;;;;;;;;4976566;28;20038;-72
2023/01/29 02:38:31;;;;;;;13.05;7.90;;;;;;;;;;4994848;28;20034;-72
2023/01/29 02:41:05;;;;;;;13.73;8.32;;;;;;;;;;4986293;28;20527;-72
2023/01/29 02:44:06;;;;;;;13.73;8.18;;;;;;;;;;4994591;28;20030;-72
2023/01/29 02:46:38;;;;;;;13.30;8.50;;;;;;;;;;4970566;28;20042;-73
2023/01/29 02:49:25;;;;;;;13.85;8.88;;;;;;;;;;4993679;28;20026;-72
2023/01/29 02:51:57;;;;;;;14.45;8.55;;;;;;;;;;4987758;28;20038;-72
2023/01/29 02:54:41;;;;;;;15.38;8.48;;;;;;;;;;5025876;28;20085;-72
2023/01/29 02:57:13;;;;;;;;;;;;;;;;;;5026978;28;20530;-72
2023/01/29 02:59:54;;;;;;;15.57;8.82;;;;;;;;;;5026427;28;19924;-72
2023/01/29 03:02:27;;;;;;;14.05;8.38;;;;;;;;;;5025531;28;20030;-72
2023/01/29 03:04:57;;;;;;;;;;;;;;;;;;4993126;28;20097;-72
2023/01/29 03:07:43;;;;;;;13.82;8.48;;;;;;;;;;4996253;28;20386;-72
2023/01/29 03:10:20;;;;;;;15.68;9.18;;;;;;;;;;5026317;28;20121;-72
2023/01/29 03:12:54;;;;;;;13.18;8.18;;;;;;;;;;4987025;28;20034;-73
2023/01/29 03:15:25;;;;;;;;;;;;;;;;;;4996467;28;20045;-72
2023/01/29 03:18:17;;;;;;;15.05;8.40;;;;;;;;;;5000556;28;20324;-72
2023/01/29 03:20:50;;;;;;;18.10;7.72;;;;;;;;;;5027321;28;20133;-72
2023/01/29 03:32:07;;;;;;;13.25;7.95;;;;;;;;;;4993336;28;20042;-73
2023/01/29 03:34:42;;;;;;;16.27;7.10;;;;;;;;;;4993909;28;20042;-72
2023/01/29 03:37:40;;;;;;;13.35;8.20;;;;;;;;;;4992814;28;20031;-72
2023/01/29 03:40:08;;;;;;;13.90;8.27;;;;;;;;;;4992672;28;20412;-73
2023/01/29 03:43:04;;;;;;;14.77;8.18;;;;;;;;;;4992455;28;20025;-72
2023/01/29 03:46:02;;;;;;;13.38;7.60;;;;;;;;;;4993926;28;20117;-72
2023/01/29 03:48:39;;;;;;;13.63;7.72;;;;;;;;;;4992369;28;20034;-72
2023/01/29 03:51:24;;;;;;;13.57;8.15;;;;;;;;;;4994104;28;20467;-72
2023/01/29 03:53:57;;;;;;;14.95;8.02;;;;;;;;;;4992207;28;20040;-73
2023/01/29 03:56:33;;;;;;;13.75;7.95;;;;;;;;;;4980682;28;20498;-72
2023/01/29 03:59:28;;;;;;;17.15;8.32;;;;;;;;;;4992350;28;20407;-72
2023/01/29 04:02:26;;;;;;;14.52;8.70;;;;;;;;;;5025221;28;20487;-73
2023/01/29 04:05:08;;;;;;;15.38;8.93;;;;;;;;;;5024785;28;20088;-73
2023/01/29 04:07:44;;;;;;;17.33;8.30;;;;;;;;;;5025249;28;20037;-72
2023/01/29 04:10:18;;;;;;;18.15;11.25;;;;;;;;;;5025054;28;20057;-72
2023/01/29 04:12:49;;;;;;;17.20;10.55;;;;;;;;;;5021665;28;20034;-73
2023/01/29 04:15:16;;;;;;;18.92;10.73;;;;;;;;;;4992702;28;20034;-73
2023/01/29 04:17:49;;;;;;;18.50;10.73;;;;;;;;;;4990955;28;20029;-72
2023/01/29 04:20:23;;;;;;;17.88;10.88;;;;;;;;;;5022963;28;20070;-73
2023/01/29 04:22:51;;;;;;;24.35;14.02;;;;;;;;;;4989163;28;20041;-73
2023/01/29 04:25:27;;;;;;;25.25;14.52;;;;;;;;;;4989084;28;20033;-73
2023/01/29 04:28:07;;;;;;;20.52;12.73;;;;;;;;;;4990713;28;20396;-73
2023/01/29 04:30:49;;;;;;;21.77;12.60;;;;;;;;;;5022517;28;20070;-72
2023/01/29 04:33:39;;;;;;;20.17;11.88;;;;;;;;;;4988348;28;20031;-73
2023/01/29 04:36:34;;;;;;;27.63;14.05;;;;;;;;;;5024417;28;20092;-73
2023/01/29 04:39:45;;;;;;;31.55;17.38;;;;;;;;;;4991419;28;20023;-72
2023/01/29 04:42:13;;;;;;;29.02;15.52;;;;;;;;;;5003266;28;20054;-73
2023/01/29 04:44:51;;;;;;;25.60;15.88;;;;;;;;;;4973335;28;20128;-72
2023/01/29 04:47:46;;;;;;;28.88;16.40;;;;;;;;;;4973913;28;20027;-72
2023/01/29 04:50:33;;;;;;;31.23;18.55;;;;;;;;;;4983125;28;20057;-73
2023/01/29 04:53:22;;;;;;;34.25;18.92;;;;;;;;;;4992886;28;20488;-73
2023/01/29 04:56:27;;;;;;;28.73;17.63;;;;;;;;;;4993460;28;20073;-73
2023/01/29 04:58:58;;;;;;;29.42;16.50;;;;;;;;;;4985051;28;20088;-72
2023/01/29 05:01:29;;;;;;;28.80;16.00;;;;;;;;;;4992839;28;20567;-73
2023/01/29 05:03:56;;;;;;;24.83;14.35;;;;;;;;;;4992796;28;20480;-73
2023/01/29 05:06:23;;;;;;;22.33;12.60;;;;;;;;;;4992499;28;20088;-73
2023/01/29 05:08:50;;;;;;;16.45;9.98;;;;;;;;;;4992425;28;20492;-73
2023/01/29 05:11:17;;;;;;;18.25;10.43;;;;;;;;;;4991377;28;20488;-73
2023/01/29 05:13:44;;;;;;;17.75;10.23;;;;;;;;;;5023753;28;20062;-73
2023/01/29 05:16:24;;;;;;;21.65;11.30;;;;;;;;;;4992594;28;20022;-73
2023/01/29 05:18:50;;;;;;;18.30;10.98;;;;;;;;;;4975447;28;20488;-73
2023/01/29 05:21:17;;;;;;;18.95;10.20;;;;;;;;;;4992784;28;20443;-72
2023/01/29 05:23:51;;;;;;;17.52;10.93;;;;;;;;;;4992606;28;20034;-72
2023/01/29 05:29:04;;;;;;;17.63;8.95;;;;;;;;;;4992863;28;20085;-73
2023/01/29 05:31:29;;;;;;;19.38;10.27;;;;;;;;;;4992588;28;20030;-73
2023/01/29 05:33:55;;;;;;;18.33;10.02;;;;;;;;;;4992504;28;20073;-72
2023/01/29 05:36:21;;;;;;;19.55;11.02;;;;;;;;;;4992695;28;20081;-73
2023/01/29 05:38:47;;;;;;;19.98;10.77;;;;;;;;;;4993478;28;20081;-73
2023/01/29 05:41:12;;;;;;;17.25;9.95;;;;;;;;;;4996489;28;20038;-72
2023/01/29 05:43:38;;;;;;;17.48;10.35;;;;;;;;;;4996672;28;20046;-72
2023/01/29 05:46:04;;;;;;;18.17;9.63;;;;;;;;;;5027923;28;20026;-73
2023/01/29 05:48:31;;;;;;;16.55;9.63;;;;;;;;;;4996464;28;20053;-72
2023/01/29 05:51:03;;;;;;;17.30;9.43;;;;;;;;;;4996401;28;20246;-73
2023/01/29 05:53:29;;;;;;;21.13;11.82;;;;;;;;;;4996227;28;20069;-73
2023/01/29 05:55:57;;;;;;;24.42;13.50;;;;;;;;;;4996083;28;20050;-72
2023/01/29 05:58:23;;;;;;;26.50;13.15;;;;;;;;;;4995936;28;20033;-73
2023/01/29 06:00:49;;;;;;;25.52;13.50;;;;;;;;;;4995588;28;20022;-72
2023/01/29 06:03:14;;;;;;;25.40;12.82;;;;;;;;;;4995603;28;20054;-72
2023/01/29 06:05:40;;;;;;;23.25;12.48;;;;;;;;;;4996059;28;20027;-72
2023/01/29 06:08:07;;;;;;;27.67;12.25;;;;;;;;;;4995868;28;20042;-73
2023/01/29 06:10:33;;;;;;;24.10;10.95;;;;;;;;;;4996104;28;20026;-73
2023/01/29 06:12:58;;;;;;;23.38;11.02;;;;;;;;;;4995882;28;20031;-74
2023/01/29 06:15:25;;;;;;;19.15;11.73;;;;;;;;;;4996024;28;20078;-73
2023/01/29 06:17:54;;;;;;;24.55;12.75;;;;;;;;;;4995755;28;20030;-73
2023/01/29 06:20:20;;;;;;;25.25;13.35;;;;;;;;;;4995844;28;20034;-73
2023/01/29 06:22:45;;;;;;;24.63;13.25;;;;;;;;;;4995581;28;20383;-73
2023/01/29 06:25:11;;;;;;;21.02;11.70;;;;;;;;;;4995828;28;20455;-73
2023/01/29 06:27:37;;;;;;;21.45;10.27;;;;;;;;;;4995856;28;20476;-73
2023/01/29 06:30:04;;;;;;;20.73;10.95;;;;;;;;;;5026883;28;20133;-73
2023/01/29 06:32:30;;;;;;;18.17;11.00;;;;;;;;;;4995454;28;20030;-73
2023/01/29 06:34:56;;;;;;;21.55;10.30;;;;;;;;;;5026317;28;20064;-73
2023/01/29 06:37:22;;;;;;;23.40;10.43;;;;;;;;;;4996150;28;20018;-73
2023/01/29 06:39:49;;;;;;;17.20;10.10;;;;;;;;;;4995911;28;20440;-73
2023/01/29 06:42:14;;;;;;;18.00;11.13;;;;;;;;;;4995820;28;20114;-72
2023/01/29 06:44:40;;;;;;;15.88;10.05;;;;;;;;;;4995031;28;20117;-72
2023/01/29 06:47:06;;;;;;;14.40;9.15;;;;;;;;;;4995384;28;20059;-73
2023/01/29 06:49:32;;;;;;;15.45;8.98;;;;;;;;;;4994542;28;20046;-73
2023/01/29 06:51:57;;;;;;;16.38;9.38;;;;;;;;;;4995004;28;20023;-73
2023/01/29 06:54:23;;;;;;;18.90;10.52;;;;;;;;;;4992660;28;20089;-73
2023/01/29 06:56:49;;;;;;;16.77;10.45;;;;;;;;;;4993188;28;20026;-73
2023/01/29 06:59:14;;;;;;;18.00;10.80;;;;;;;;;;4994535;28;20042;-72
2023/01/29 07:01:42;;;;;;;17.40;9.60;;;;;;;;;;4994343;28;20032;-72
2023/01/29 07:04:09;;;;;;;17.90;10.57;;;;;;;;;;4992024;28;20038;-72
2023/01/29 07:06:35;;;;;;;23.42;10.57;;;;;;;;;;4993630;28;20101;-73
2023/01/29 07:09:02;;;;;;;24.77;12.32;;;;;;;;;;4990681;28;20105;-72
2023/01/29 07:11:27;;;;;;;18.98;10.13;;;;;;;;;;4990475;28;20498;-72
2023/01/29 07:13:53;;;;;;;13.80;8.82;;;;;;;;;;4988166;28;20117;-73
2023/01/29 07:16:19;;;;;;;15.65;8.95;;;;;;;;;;4989838;28;20392;-74
2023/01/29 07:18:45;;;;;;;17.05;9.43;;;;;;;;;;4989499;28;20428;-73
2023/01/29 07:21:10;;;;;;;13.88;9.02;;;;;;;;;;4993018;28;20067;-72
2023/01/29 07:23:36;;;;;;;11.75;8.27;;;;;;;;;;4991501;28;20063;-73
2023/01/29 07:26:03;;;;;;;14.80;8.38;;;;;;;;;;4990525;28;20022;-73
2023/01/29 07:28:29;;;;;;;17.75;9.20;;;;;;;;;;4993885;28;20018;-73
2023/01/29 07:30:58;;;;;;;14.90;8.63;;;;;;;;;;4993860;28;20029;-73
2023/01/29 07:33:24;;;;;;;13.35;8.18;;;;;;;;;;4993760;28;20037;-73
2023/01/29 07:35:50;;;;;;;20.50;9.63;;;;;;;;;;4993855;28;20041;-73
2023/01/29 07:38:15;;;;;;;15.23;7.78;;;;;;;;;;5022564;28;20027;-74
2023/01/29 07:40:41;;;;;;;14.57;8.52;;;;;;;;;;4992363;28;20030;-70
2023/01/29 07:43:08;;;;;;;11.48;7.53;;;;;;;;;;4993666;28;20035;-74
2023/01/29 07:45:36;;;;;;;12.32;7.80;;;;;;;;;;4992168;28;20487;-72
2023/01/29 07:48:03;;;;;;;11.68;7.45;;;;;;;;;;4992055;28;20125;-72
2023/01/29 07:50:30;;;;;;;12.43;7.63;;;;;;;;;;4993999;28;20033;-73
2023/01/29 07:52:56;;;;;;;12.60;8.10;;;;;;;;;;4993500;28;20029;-73
2023/01/29 07:55:22;;;;;;;15.85;8.13;;;;;;;;;;4993057;28;20121;-74
2023/01/29 07:57:55;;;;;;;13.85;8.10;;;;;;;;;;4993351;28;20492;-73
2023/01/29 08:00:21;;;;;;;15.07;8.60;;;;;;;;;;4992286;28;20041;-73
2023/01/29 08:02:46;;;;;;;21.63;10.05;;;;;;;;;;4993455;28;20022;-74
2023/01/29 08:05:12;;;;;;;15.98;8.43;;;;;;;;;;4995207;28;20407;-72
2023/01/29 08:07:38;;;;;;;13.43;8.27;;;;;;;;;;4989600;28;20019;-71
2023/01/29 08:10:04;;;;;;;14.15;8.55;;;;;;;;;;4995227;28;20045;-72
2023/01/29 08:12:30;;;;;;;13.02;8.35;;;;;;;;;;4995209;28;20022;-72
2023/01/29 08:14:55;;;;;;;17.52;9.68;;;;;;;;;;4990284;28;20048;-72
2023/01/29 08:17:21;;;;;;;15.35;8.50;;;;;;;;;;4992854;28;20029;-72
2023/01/29 08:19:47;;;;;;;11.43;7.38;;;;;;;;;;4992850;28;20030;-73
2023/01/29 08:22:14;;;;;;;16.05;8.35;;;;;;;;;;4992515;28;20087;-72
2023/01/29 08:24:39;;;;;;;16.13;7.63;;;;;;;;;;4992255;28;20065;-73
2023/01/29 08:27:05;;;;;;;11.95;7.05;;;;;;;;;;4998248;28;20112;-73
2023/01/29 08:29:31;;;;;;;11.27;7.20;;;;;;;;;;4997681;28;20515;-72
2023/01/29 08:31:57;;;;;;;11.85;7.55;;;;;;;;;;4991786;28;20388;-73
2023/01/29 08:34:22;;;;;;;13.23;7.15;;;;;;;;;;4991976;28;20058;-73
2023/01/29 08:36:48;;;;;;;10.65;6.47;;;;;;;;;;4992249;28;20030;-73
2023/01/29 08:39:14;;;;;;;11.98;7.22;;;;;;;;;;4989894;28;20046;-71
2023/01/29 08:41:39;;;;;;;12.35;7.43;;;;;;;;;;4991772;28;20029;-72
2023/01/29 08:44:07;;;;;;;15.10;8.48;;;;;;;;;;4990197;28;20130;-76
2023/01/29 08:46:32;;;;;;;14.18;7.30;;;;;;;;;;4993271;28;20499;-72
2023/01/29 08:48:58;;;;;;;11.00;7.30;;;;;;;;;;4992156;28;20038;-73
2023/01/29 08:51:25;;;;;;;13.00;7.15;;;;;;;;;;4991504;28;20077;-73
2023/01/29 08:53:51;;;;;;;11.55;6.82;;;;;;;;;;4990836;28;20125;-74
2023/01/29 08:56:17;;;;;;;14.98;8.18;;;;;;;;;;4992070;28;20100;-72
2023/01/29 08:58:43;;;;;;;13.15;7.50;;;;;;;;;;4991529;28;20042;-74
2023/01/29 09:01:10;;;;;;;14.30;7.75;;;;;;;;;;4989871;28;20027;-74
2023/01/29 09:03:39;;;;;;;12.88;6.90;;;;;;;;;;4989717;28;20470;-74
2023/01/29 09:06:06;;;;;;;15.32;8.23;;;;;;;;;;4984298;28;20026;-74
2023/01/29 09:08:31;;;;;;;12.40;7.30;;;;;;;;;;4990320;28;20400;-73
2023/01/29 09:10:58;;;;;;;11.75;7.90;;;;;;;;;;4991332;28;20030;-73
2023/01/29 09:13:25;;;;;;;13.55;7.68;;;;;;;;;;4993841;28;20040;-73
2023/01/29 09:15:50;;;;;;;16.23;8.25;;;;;;;;;;4994157;28;20034;-74
2023/01/29 09:18:16;;;;;;;12.05;6.78;;;;;;;;;;4990215;28;20154;-73
2023/01/29 09:20:42;;;;;;;10.55;6.65;;;;;;;;;;4989946;28;20481;-72
2023/01/29 09:23:09;;;;;;;14.07;7.43;;;;;;;;;;4989138;28;20034;-73
2023/01/29 09:25:35;;;;;;;11.68;7.88;;;;;;;;;;4989134;28;20030;-73
2023/01/29 09:28:01;;;;;;;14.95;7.38;;;;;;;;;;4989907;28;20073;-73
2023/01/29 09:30:27;;;;;;;11.45;7.22;;;;;;;;;;4990357;28;20475;-72
2023/01/29 09:32:53;;;;;;;14.25;8.23;;;;;;;;;;4985836;28;20042;-72
2023/01/29 09:35:18;;;;;;;12.30;6.82;;;;;;;;;;4991023;28;20033;-72
2023/01/29 09:37:48;;;;;;;12.35;7.55;;;;;;;;;;4992101;28;20116;-72
2023/01/29 09:40:28;;;;;;;12.48;7.60;;;;;;;;;;4992342;28;20164;-71
2023/01/29 09:43:04;;;;;;;10.18;6.80;;;;;;;;;;4990211;28;20665;-73
2023/01/29 09:45:30;;;;;;;10.15;6.68;;;;;;;;;;4991649;28;20030;-72
2023/01/29 09:47:59;;;;;;;13.13;6.90;;;;;;;;;;4991386;28;20029;-72
2023/01/29 09:50:33;;;;;;;11.82;7.57;;;;;;;;;;4991077;28;20560;-71
2023/01/29 09:53:50;;;;;;;12.25;7.07;;;;;;;;;;4992279;28;20555;-73
2023/01/29 09:56:20;;;;;;;14.95;7.32;;;;;;;;;;4949137;28;20039;-73
2023/01/29 09:58:46;;;;;;;11.60;6.65;;;;;;;;;;4950583;28;20027;-72
2023/01/29 10:01:26;;;;;;;12.43;7.03;;;;;;;;;;4974614;28;20047;-74
2023/01/29 10:04:10;;;;;;;11.18;7.05;;;;;;;;;;4991728;28;20042;-74
2023/01/29 10:07:00;;;;;;;11.65;8.13;;;;;;;;;;4992268;28;20042;-73
2023/01/29 10:09:51;;;;;;;10.38;6.18;;;;;;;;;;4992046;28;20054;-74
2023/01/29 10:12:49;;;;;;;10.23;6.60;;;;;;;;;;4991973;28;20484;-73
2023/01/29 10:15:33;;;;;;;14.00;8.77;;;;;;;;;;4968208;28;20042;-74
2023/01/29 10:18:39;;;;;;;11.38;7.85;;;;;;;;;;4991017;28;20484;-73
2023/01/29 10:21:24;;;;;;;12.27;7.80;;;;;;;;;;4991888;28;20049;-73
2023/01/29 10:23:56;;;;;;;18.42;8.32;;;;;;;;;;4992030;28;20480;-73
2023/01/29 10:26:25;;;;;;;11.23;6.90;;;;;;;;;;4995205;28;20173;-74
2023/01/29 10:28:54;;;;;;;10.77;6.90;;;;;;;;;;4993978;28;20496;-73
2023/01/29 10:31:31;;;;;;;14.27;7.35;;;;;;;;;;4995661;28;20026;-72
2023/01/29 10:34:16;;;;;;;13.27;7.63;;;;;;;;;;4995075;28;20121;-72
2023/01/29 10:36:48;;;;;;;15.27;9.30;;;;;;;;;;4995048;28;20049;-72
2023/01/29 10:39:19;;;;;;;16.55;7.75;;;;;;;;;;4995365;28;20034;-71
2023/01/29 10:41:56;;;;;;;12.43;7.50;;;;;;;;;;4995106;28;20032;-73
2023/01/29 10:44:34;;;;;;;15.27;7.60;;;;;;;;;;4994971;28;20026;-73
2023/01/29 10:47:20;;;;;;;13.18;7.97;;;;;;;;;;4994960;28;20042;-73
2023/01/29 10:49:55;;;;;;;10.95;7.35;;;;;;;;;;4994638;28;20317;-74
2023/01/29 10:52:51;;;;;;;13.52;7.63;;;;;;;;;;4993057;28;20072;-73
2023/01/29 10:55:42;;;;;;;11.68;7.43;;;;;;;;;;4987653;28;20038;-73
2023/01/29 10:58:31;;;;;;;12.23;7.95;;;;;;;;;;4994532;28;20029;-73
2023/01/29 11:00:57;;;;;;;11.38;7.18;;;;;;;;;;4994630;28;20121;-73
2023/01/29 11:03:29;;;;;;;14.35;7.57;;;;;;;;;;4993095;28;20034;-74
2023/01/29 11:06:18;;;;;;;14.05;7.05;;;;;;;;;;4993824;28;20085;-75
2023/01/29 11:09:09;;;;;;;13.20;7.88;;;;;;;;;;4994430;28;20519;-73
2023/01/29 11:11:59;;;;;;;12.43;7.50;;;;;;;;;;4994517;28;20048;-74
2023/01/29 11:14:41;;;;;;;10.57;6.53;;;;;;;;;;4993749;28;20037;-73
2023/01/29 11:17:17;;;;;;;11.30;6.53;;;;;;;;;;4994313;28;20040;-72
2023/01/29 11:19:45;;;;;;;13.48;7.85;;;;;;;;;;4994039;28;20063;-73
2023/01/29 11:22:16;;;;;;;11.27;7.22;;;;;;;;;;4994335;28;20384;-73
2023/01/29 11:24:43;;;;;;;10.65;6.20;;;;;;;;;;4992803;28;20040;-73
2023/01/29 11:27:24;;;;;;;9.93;6.45;;;;;;;;;;4994187;28;20415;-76
2023/01/29 11:29:52;;;;;;;12.90;7.82;;;;;;;;;;4993944;28;20539;-74
2023/01/29 11:32:18;;;;;;;11.57;7.30;;;;;;;;;;4992620;28;20048;-72
2023/01/29 11:34:56;;;;;;;10.50;6.72;;;;;;;;;;4993646;28;20116;-74
2023/01/29 11:37:22;;;;;;;11.00;7.20;;;;;;;;;;4993686;28;20438;-73
2023/01/29 11:39:49;;;;;;;10.68;6.55;;;;;;;;;;4992127;28;20121;-74
2023/01/29 11:42:22;;;;;;;9.88;6.47;;;;;;;;;;4991741;28;20038;-74
2023/01/29 11:44:48;;;;;;;12.13;7.25;;;;;;;;;;4993367;28;20042;-74
2023/01/29 11:47:20;;;;;;;10.35;6.38;;;;;;;;;;4990795;28;20081;-74
2023/01/29 11:49:49;;;;;;;10.30;6.50;;;;;;;;;;4991965;28;20480;-74
2023/01/29 11:52:17;;;;;;;10.02;6.05;;;;;;;;;;4993388;28;20030;-74
2023/01/29 11:54:46;;;;;;;10.40;6.22;;;;;;;;;;4993198;28;20377;-74
2023/01/29 11:57:26;;;;;;;10.48;6.53;;;;;;;;;;4992302;28;20027;-74
2023/01/29 11:59:54;;;;;;;31.75;17.52;;;;;;;;;;4993297;28;20038;-74
2023/01/29 12:02:41;;;;;;;11.13;5.68;;;;;;;;;;4992244;28;20349;-74
2023/01/29 12:05:18;;;;;;;9.40;5.60;;;;;;;;;;4993645;28;20066;-73
2023/01/29 12:07:50;;;;;;;10.88;5.65;;;;;;;;;;4993036;28;20034;-74
2023/01/29 12:10:32;;;;;;;10.32;6.13;;;;;;;;;;4989245;28;20499;-74
2023/01/29 12:13:08;;;;;;;8.95;6.13;;;;;;;;;;4992775;28;20481;-73
2023/01/29 12:15:35;;;;;;;15.65;7.65;;;;;;;;;;4993215;28;20042;-73
2023/01/29 12:18:07;;;;;;;12.15;6.97;;;;;;;;;;4992416;28;20026;-71
2023/01/29 12:20:39;;;;;;;12.43;7.13;;;;;;;;;;4992909;28;20042;-73
2023/01/29 12:23:35;;;;;;;13.37;7.00;;;;;;;;;;4992437;28;20038;-72
2023/01/29 12:26:14;;;;;;;13.45;8.65;;;;;;;;;;4992504;28;20467;-72
2023/01/29 12:29:13;;;;;;;57.30;27.75;;;;;;;;;;4992737;28;20023;-74
2023/01/29 12:31:48;;;;;;;19.08;9.63;;;;;;;;;;4988657;28;20030;-73
2023/01/29 12:34:32;;;;;;;10.65;6.53;;;;;;;;;;4991836;28;20066;-74
2023/01/29 12:37:13;;;;;;;34.42;17.77;;;;;;;;;;4992343;28;20325;-74
2023/01/29 12:39:39;;;;;;;11.95;7.38;;;;;;;;;;4992096;28;20061;-74
2023/01/29 12:42:17;;;;;;;26.83;13.65;;;;;;;;;;4992024;28;20026;-73
2023/01/29 12:44:49;;;;;;;9.70;6.22;;;;;;;;;;4989502;28;20049;-74
2023/01/29 12:47:35;;;;;;;15.48;6.35;;;;;;;;;;4989634;28;20029;-75
2023/01/29 12:50:07;;;;;;;10.18;5.75;;;;;;;;;;4985682;28;20038;-73
2023/01/29 12:52:40;;;;;;;10.70;5.32;;;;;;;;;;4994201;28;20057;-74
2023/01/29 12:55:23;;;;;;;8.50;5.03;;;;;;;;;;4993507;28;20046;-73
2023/01/29 12:58:01;;;;;;;8.60;5.18;;;;;;;;;;4992409;28;20034;-74
2023/01/29 13:00:37;;;;;;;9.23;5.57;;;;;;;;;;4990717;28;20049;-73
2023/01/29 13:03:19;;;;;;;10.20;5.53;;;;;;;;;;4991779;28;20519;-73
2023/01/29 13:05:48;;;;;;;7.65;5.15;;;;;;;;;;4990500;28;20030;-72
2023/01/29 13:08:25;;;;;;;10.05;5.10;;;;;;;;;;4991257;28;20018;-74
2023/01/29 13:10:53;;;;;;;8.70;5.32;;;;;;;;;;4992464;28;20057;-74
2023/01/29 13:13:42;;;;;;;7.88;5.10;;;;;;;;;;4991534;28;20028;-74
2023/01/29 13:16:11;;;;;;;8.98;5.82;;;;;;;;;;4993147;28;20522;-73
2023/01/29 13:18:43;;;;;;;10.23;6.57;;;;;;;;;;4991810;28;20022;-73
2023/01/29 13:21:18;;;;;;;11.13;6.65;;;;;;;;;;4991336;28;20109;-73
2023/01/29 13:23:52;;;;;;;15.95;8.05;;;;;;;;;;4990646;28;20177;-74
2023/01/29 13:26:18;;;;;;;;;;;;;;;;;;4990342;28;20502;-74
2023/01/29 13:28:45;;;;;;;11.55;6.70;;;;;;;;;;4992761;28;19996;-73
2023/01/29 13:31:19;;;;;;;11.65;6.80;;;;;;;;;;4992121;28;20517;-73
2023/01/29 13:34:08;;;;;;;9.43;6.72;;;;;;;;;;4992204;28;20038;-73
2023/01/29 13:36:36;;;;;;;9.25;6.22;;;;;;;;;;4983291;28;20128;-74
2023/01/29 13:39:07;;;;;;;11.27;6.07;;;;;;;;;;4992362;28;20027;-73
2023/01/29 13:41:40;;;;;;;11.07;7.55;;;;;;;;;;4992488;28;20046;-74
2023/01/29 13:44:17;;;;;;;12.18;6.38;;;;;;;;;;4991913;28;20554;-73
2023/01/29 13:46:56;;;;;;;9.55;6.38;;;;;;;;;;4992553;28;20038;-73
2023/01/29 13:49:31;;;;;;;10.40;6.45;;;;;;;;;;4992234;28;20031;-73
2023/01/29 13:51:57;;;;;;;10.43;6.53;;;;;;;;;;4992517;28;20049;-73
2023/01/29 13:54:25;;;;;;;9.95;5.65;;;;;;;;;;4992088;28;20396;-74
2023/01/29 13:56:53;;;;;;;9.65;6.03;;;;;;;;;;4992424;28;20042;-72
2023/01/29 13:59:43;;;;;;;12.85;7.55;;;;;;;;;;4992453;28;20030;-72
2023/01/29 14:02:24;;;;;;;11.85;7.22;;;;;;;;;;4995784;28;20111;-73
2023/01/29 14:04:50;;;;;;;10.40;6.75;;;;;;;;;;4995575;28;20042;-73
2023/01/29 14:07:45;;;;;;;10.27;6.50;;;;;;;;;;4994458;28;20029;-72
2023/01/29 14:10:18;;;;;;;9.93;6.20;;;;;;;;;;4986989;28;20125;-74
2023/01/29 14:12:50;;;;;;;10.15;6.05;;;;;;;;;;4995906;28;20038;-73
2023/01/29 14:15:23;;;;;;;11.32;6.40;;;;;;;;;;4995499;28;20104;-74
2023/01/29 14:17:59;;;;;;;10.40;6.90;;;;;;;;;;4995668;28;20552;-74
2023/01/29 14:20:34;;;;;;;23.02;13.63;;;;;;;;;;4995962;28;20113;-74
2023/01/29 14:23:03;;;;;;;16.63;8.95;;;;;;;;;;4995432;28;20038;-73
2023/01/29 14:25:37;;;;;;;13.48;9.02;;;;;;;;;;4995734;28;20300;-74
2023/01/29 14:28:12;;;;;;;13.38;7.75;;;;;;;;;;4995246;28;20487;-74
2023/01/29 14:30:39;;;;;;;12.82;7.22;;;;;;;;;;4994003;28;20073;-75
2023/01/29 14:33:37;;;;;;;10.82;6.65;;;;;;;;;;4995228;28;20037;-73
2023/01/29 14:36:08;;;;;;;13.32;7.90;;;;;;;;;;4995385;28;20504;-73
2023/01/29 14:38:34;;;;;;;12.75;8.23;;;;;;;;;;4995149;28;20042;-74
2023/01/29 14:41:09;;;;;;;10.82;7.38;;;;;;;;;;4995772;28;20030;-73
2023/01/29 14:43:35;;;;;;;12.32;7.68;;;;;;;;;;4995035;28;20038;-74
2023/01/29 14:46:32;;;;;;;14.07;8.52;;;;;;;;;;4995726;28;20037;-73
2023/01/29 14:48:59;;;;;;;10.60;6.35;;;;;;;;;;4995345;28;20057;-72
2023/01/29 14:51:31;;;;;;;13.35;7.07;;;;;;;;;;4993545;28;20037;-73
2023/01/29 14:54:12;;;;;;;12.95;8.77;;;;;;;;;;4990657;28;20140;-73
2023/01/29 14:56:52;;;;;;;8.68;5.80;;;;;;;;;;4992699;28;20559;-73
2023/01/29 14:59:29;;;;;;;12.45;8.25;;;;;;;;;;4993218;28;20030;-72
2023/01/29 15:01:57;;;;;;;11.32;7.07;;;;;;;;;;4994157;28;20042;-74
2023/01/29 15:04:27;;;;;;;13.10;7.63;;;;;;;;;;4992773;28;20492;-73
2023/01/29 15:07:03;;;;;;;9.43;6.70;;;;;;;;;;4993479;28;20030;-73
2023/01/29 15:09:47;;;;;;;12.48;6.97;;;;;;;;;;4993523;28;20026;-73
2023/01/29 15:12:22;;;;;;;13.23;8.32;;;;;;;;;;4993351;28;20494;-73
2023/01/29 15:15:25;;;;;;;15.40;8.40;;;;;;;;;;4993161;28;20458;-73
2023/01/29 15:18:06;;;;;;;12.48;7.15;;;;;;;;;;4993412;28;20022;-73
2023/01/29 15:20:38;;;;;;;9.55;5.65;;;;;;;;;;4987321;28;20045;-74
2023/01/29 15:23:23;;;;;;;13.13;5.78;;;;;;;;;;4992719;28;20044;-73
2023/01/29 15:25:53;;;;;;;9.65;5.20;;;;;;;;;;4993516;28;20038;-74
2023/01/29 15:28:19;;;;;;;9.63;5.88;;;;;;;;;;4990299;28;20030;-73
2023/01/29 15:30:53;;;;;;;9.85;6.20;;;;;;;;;;4992404;28;20042;-73
2023/01/29 15:33:19;;;;;;;10.27;6.25;;;;;;;;;;4992896;28;20088;-74
2023/01/29 15:35:47;;;;;;;14.27;7.10;;;;;;;;;;4993857;28;20258;-73
2023/01/29 15:38:17;;;;;;;13.82;7.95;;;;;;;;;;4993639;28;20034;-73